createdAt,value
2023-05-22T00:01:14.284Z,17.49
2023-05-22T00:03:41.185Z,17.29
2023-05-22T00:06:10.491Z,17.40
2023-05-22T00:09:00.124Z,17.38
2023-05-22T00:11:36.380Z,17.37
2023-05-22T00:14:09.993Z,17.36
2023-05-22T00:16:37.106Z,17.24
2023-05-22T00:19:11.013Z,17.15
2023-05-22T00:21:44.945Z,17.23
2023-05-22T00:24:11.913Z,17.10
2023-05-22T00:26:47.991Z,17.26
2023-05-22T00:29:21.531Z,17.25
2023-05-22T00:31:55.080Z,17.21
2023-05-22T00:34:24.644Z,17.21
2023-05-22T00:36:57.972Z,17.20
2023-05-22T00:39:24.968Z,17.17
2023-05-22T00:41:59.042Z,17.17
2023-05-22T00:44:26.029Z,17.09
2023-05-22T00:47:00.074Z,17.13
2023-05-22T00:49:26.996Z,17.13
2023-05-22T00:52:01.037Z,17.07
2023-05-22T00:54:35.990Z,17.06
2023-05-22T00:57:03.931Z,16.98
2023-05-22T00:59:37.977Z,17.00
2023-05-22T01:02:12.223Z,17.07
2023-05-22T01:04:46.066Z,17.01
2023-05-22T01:07:20.012Z,16.97
2023-05-22T01:09:46.929Z,16.89
2023-05-22T01:12:38.018Z,17.04
2023-05-22T01:15:37.925Z,16.94
2023-05-22T01:18:26.032Z,16.88
2023-05-22T01:21:37.046Z,16.99
2023-05-22T01:24:49.049Z,16.84
2023-05-22T01:27:18.511Z,16.98
2023-05-22T01:30:08.123Z,16.89
2023-05-22T01:32:51.099Z,16.92
2023-05-22T01:35:19.658Z,16.89
2023-05-22T01:37:54.039Z,16.92
2023-05-22T01:40:28.134Z,16.92
2023-05-22T01:43:02.086Z,16.87
2023-05-22T01:45:32.010Z,16.86
2023-05-22T01:48:06.086Z,16.77
2023-05-22T01:50:33.468Z,16.82
2023-05-22T01:53:25.099Z,16.84
2023-05-22T01:56:10.867Z,16.84
2023-05-22T01:59:08.046Z,16.82
2023-05-22T02:01:38.753Z,16.82
2023-05-22T02:04:13.067Z,16.81
2023-05-22T02:06:41.753Z,16.81
2023-05-22T02:09:16.061Z,16.81
2023-05-22T02:11:50.076Z,16.69
2023-05-22T02:14:25.053Z,16.72
2023-05-22T02:16:54.458Z,16.72
2023-05-22T02:19:28.273Z,16.68
2023-05-22T02:22:02.135Z,16.52
2023-05-22T02:24:30.608Z,16.68
2023-05-22T02:27:05.041Z,16.52
2023-05-22T02:29:38.357Z,16.69
2023-05-22T02:32:18.194Z,16.49
2023-05-22T02:34:45.328Z,16.55
2023-05-22T02:37:20.137Z,16.59
2023-05-22T02:39:46.993Z,16.59
2023-05-22T02:42:20.109Z,16.57
2023-05-22T02:44:46.959Z,16.56
2023-05-22T02:47:20.149Z,16.55
2023-05-22T02:49:54.118Z,16.48
2023-05-22T02:52:28.123Z,16.47
2023-05-22T02:55:02.085Z,16.51
2023-05-22T02:57:28.988Z,16.49
2023-05-22T03:00:03.094Z,16.45
2023-05-22T03:02:32.723Z,16.45
2023-05-22T03:05:06.160Z,16.45
2023-05-22T03:07:33.235Z,16.48
2023-05-22T03:10:07.426Z,16.48
2023-05-22T03:12:34.376Z,16.41
2023-05-22T03:15:08.125Z,16.52
2023-05-22T03:17:35.100Z,16.51
2023-05-22T03:20:08.150Z,16.49
2023-05-22T03:22:41.045Z,16.41
2023-05-22T03:25:16.312Z,16.48
2023-05-22T03:27:43.352Z,16.46
2023-05-22T03:30:26.133Z,16.44
2023-05-22T03:32:53.786Z,16.42
2023-05-22T03:35:28.425Z,16.41
2023-05-22T03:38:02.013Z,16.44
2023-05-22T03:40:35.126Z,16.42
2023-05-22T03:43:08.132Z,16.42
2023-05-22T03:45:35.191Z,16.43
2023-05-22T03:48:08.197Z,16.37
2023-05-22T03:50:35.070Z,16.37
2023-05-22T03:53:08.191Z,16.41
2023-05-22T03:55:35.142Z,16.36
2023-05-22T03:58:08.126Z,16.38
2023-05-22T04:00:43.163Z,16.31
2023-05-22T04:03:19.328Z,16.30
2023-05-22T04:05:47.443Z,16.38
2023-05-22T04:08:21.153Z,16.36
2023-05-22T04:10:55.098Z,16.36
2023-05-22T04:13:28.194Z,16.26
2023-05-22T04:15:57.120Z,16.36
2023-05-22T04:18:24.291Z,16.42
2023-05-22T04:20:59.348Z,16.38
2023-05-22T04:23:26.378Z,16.44
2023-05-22T04:26:00.217Z,16.34
2023-05-22T04:28:27.344Z,16.40
2023-05-22T04:31:07.226Z,16.34
2023-05-22T04:33:34.880Z,16.39
2023-05-22T04:36:11.527Z,16.36
2023-05-22T04:38:39.400Z,16.51
2023-05-22T04:41:15.428Z,16.52
2023-05-22T04:43:49.191Z,16.55
2023-05-22T04:46:16.534Z,16.55
2023-05-22T04:48:50.271Z,16.53
2023-05-22T04:51:17.407Z,16.58
2023-05-22T04:53:51.167Z,16.61
2023-05-22T04:56:35.336Z,16.65
2023-05-22T04:59:11.158Z,16.70
2023-05-22T05:01:45.241Z,16.74
2023-05-22T05:04:19.201Z,16.70
2023-05-22T05:06:46.328Z,16.81
2023-05-22T05:09:20.234Z,16.86
2023-05-22T05:11:47.294Z,16.84
2023-05-22T05:14:21.181Z,16.98
2023-05-22T05:16:48.320Z,16.97
2023-05-22T05:19:22.190Z,17.08
2023-05-22T05:21:52.667Z,17.18
2023-05-22T05:24:26.171Z,17.26
2023-05-22T05:27:00.244Z,17.33
2023-05-22T05:29:40.482Z,17.41
2023-05-22T05:32:14.212Z,17.43
2023-05-22T05:34:50.201Z,17.51
2023-05-22T05:37:24.225Z,17.53
2023-05-22T05:39:51.443Z,17.53
2023-05-22T05:42:25.436Z,17.55
2023-05-22T05:44:52.469Z,17.55
2023-05-22T05:47:26.182Z,17.55
2023-05-22T05:49:53.159Z,17.55
2023-05-22T05:52:26.221Z,17.62
2023-05-22T05:54:53.300Z,17.60
2023-05-22T05:57:27.392Z,17.67
2023-05-22T05:59:54.312Z,17.71
2023-05-22T06:02:28.297Z,17.71
2023-05-22T06:05:03.307Z,17.73
2023-05-22T06:07:30.459Z,17.74
2023-05-22T06:10:04.221Z,17.80
2023-05-22T06:12:31.728Z,17.83
2023-05-22T06:15:05.297Z,17.78
2023-05-22T06:17:32.510Z,17.79
2023-05-22T06:20:06.291Z,17.88
2023-05-22T06:22:33.240Z,17.81
2023-05-22T06:25:07.332Z,17.86
2023-05-22T06:27:34.397Z,17.90
2023-05-22T06:30:16.824Z,17.95
2023-05-22T06:32:53.804Z,17.97
2023-05-22T06:35:27.366Z,18.04
2023-05-22T06:37:54.985Z,17.95
2023-05-22T06:40:29.388Z,18.10
2023-05-22T06:43:04.191Z,18.10
2023-05-22T06:45:38.325Z,18.06
2023-05-22T06:48:05.658Z,18.23
2023-05-22T06:50:32.588Z,18.38
2023-05-22T06:53:06.340Z,18.44
2023-05-22T06:55:33.243Z,18.50
2023-05-22T06:58:07.187Z,18.50
2023-05-22T07:00:34.360Z,18.70
2023-05-22T07:03:08.292Z,18.65
2023-05-22T07:05:35.330Z,18.73
2023-05-22T07:08:09.263Z,18.93
2023-05-22T07:10:36.314Z,19.02
2023-05-22T07:13:10.249Z,19.12
2023-05-22T07:15:45.119Z,19.25
2023-05-22T07:18:20.309Z,19.37
2023-05-22T07:20:47.481Z,19.44
2023-05-22T07:23:21.396Z,19.47
2023-05-22T07:25:55.353Z,19.52
2023-05-22T07:28:29.357Z,19.57
2023-05-22T07:31:03.302Z,19.64
2023-05-22T07:33:30.190Z,19.73
2023-05-22T07:36:04.256Z,19.78
2023-05-22T07:38:31.184Z,19.89
2023-05-22T07:41:04.375Z,19.92
2023-05-22T07:43:31.728Z,19.94
2023-05-22T07:46:05.210Z,19.93
2023-05-22T07:48:32.300Z,19.85
2023-05-22T07:51:05.299Z,20.00
2023-05-22T07:53:32.403Z,20.18
2023-05-22T07:56:06.225Z,20.29
2023-05-22T07:58:35.160Z,20.28
2023-05-22T08:01:09.723Z,20.32
2023-05-22T08:03:43.599Z,20.47
2023-05-22T08:06:10.822Z,20.56
2023-05-22T08:08:44.336Z,20.78
2023-05-22T08:11:11.452Z,20.82
2023-05-22T08:13:45.250Z,20.86
2023-05-22T08:16:12.185Z,20.81
2023-05-22T08:18:45.380Z,20.95
2023-05-22T08:21:12.347Z,21.00
2023-05-22T08:23:45.188Z,21.01
2023-05-22T08:26:12.705Z,21.18
2023-05-22T08:28:44.287Z,21.15
2023-05-22T08:31:18.353Z,21.42
2023-05-22T08:33:45.453Z,21.46
2023-05-22T08:36:20.832Z,21.45
2023-05-22T08:38:47.678Z,21.38
2023-05-22T08:41:22.265Z,21.41
2023-05-22T08:43:49.318Z,21.56
2023-05-22T08:46:24.382Z,21.78
2023-05-22T08:48:52.434Z,22.00
2023-05-22T08:51:28.311Z,22.10
2023-05-22T08:54:03.440Z,22.30
2023-05-22T08:56:32.090Z,22.22
2023-05-22T08:59:08.277Z,22.34
2023-05-22T09:01:42.673Z,22.46
2023-05-22T09:04:16.285Z,22.73
2023-05-22T09:06:49.537Z,22.82
2023-05-22T09:09:23.486Z,23.05
2023-05-22T09:11:57.328Z,23.16
2023-05-22T09:14:27.461Z,22.94
2023-05-22T09:17:01.355Z,22.82
2023-05-22T09:19:34.505Z,22.87
2023-05-22T09:22:06.626Z,22.79
2023-05-22T09:24:50.471Z,23.03
2023-05-22T09:27:17.574Z,23.30
2023-05-22T09:29:59.279Z,23.54
2023-05-22T09:32:36.687Z,23.87
2023-05-22T09:35:12.513Z,24.15
2023-05-22T09:37:40.437Z,24.39
2023-05-22T09:40:23.412Z,24.40
2023-05-22T09:42:50.380Z,24.28
2023-05-22T09:45:28.771Z,24.09
2023-05-22T09:47:56.114Z,24.20
2023-05-22T09:50:23.500Z,24.19
2023-05-22T09:52:58.361Z,24.47
2023-05-22T09:55:27.516Z,24.68
2023-05-22T09:58:02.545Z,24.77
2023-05-22T10:00:30.408Z,25.10
2023-05-22T10:03:19.363Z,25.31
2023-05-22T10:05:54.135Z,25.37
2023-05-22T10:08:34.433Z,25.37
2023-05-22T10:11:03.853Z,25.51
2023-05-22T10:13:37.522Z,25.36
2023-05-22T10:16:08.158Z,25.43
2023-05-22T10:18:43.355Z,25.36
2023-05-22T10:21:10.498Z,25.46
2023-05-22T10:23:44.525Z,25.60
2023-05-22T10:26:11.742Z,25.54
2023-05-22T10:28:53.307Z,25.58
2023-05-22T10:31:48.582Z,25.96
2023-05-22T10:34:35.533Z,26.19
2023-05-22T10:37:17.003Z,26.34
2023-05-22T10:39:58.455Z,26.42
2023-05-22T10:42:30.105Z,26.05
2023-05-22T10:44:57.102Z,25.85
2023-05-22T10:47:30.524Z,25.94
2023-05-22T10:50:11.827Z,25.93
2023-05-22T10:52:47.355Z,25.95
2023-05-22T10:55:14.872Z,26.25
2023-05-22T10:57:49.448Z,26.12
2023-05-22T11:00:18.952Z,26.45
2023-05-22T11:02:52.484Z,26.56
2023-05-22T11:05:20.385Z,26.53
2023-05-22T11:07:54.419Z,26.61
2023-05-22T11:10:27.919Z,26.66
2023-05-22T11:13:19.337Z,26.60
2023-05-22T11:15:46.891Z,26.50
2023-05-22T11:18:23.438Z,26.09
2023-05-22T11:20:50.539Z,26.05
2023-05-22T11:23:26.347Z,26.11
2023-05-22T11:25:53.531Z,26.19
2023-05-22T11:28:27.461Z,26.33
2023-05-22T11:31:01.668Z,26.50
2023-05-22T11:33:35.777Z,26.54
2023-05-22T11:36:03.713Z,26.85
2023-05-22T11:38:37.536Z,26.77
2023-05-22T11:41:04.585Z,26.31
2023-05-22T11:43:41.541Z,26.35
2023-05-22T11:46:10.748Z,26.36
2023-05-22T11:48:48.451Z,26.44
2023-05-22T11:51:26.342Z,26.47
2023-05-22T11:53:53.467Z,26.54
2023-05-22T11:56:30.580Z,26.63
2023-05-22T11:58:57.520Z,26.62
2023-05-22T12:01:31.523Z,26.62
2023-05-22T12:03:58.535Z,26.68
2023-05-22T12:06:32.489Z,26.94
2023-05-22T12:09:01.182Z,27.02
2023-05-22T12:11:34.441Z,27.06
2023-05-22T12:14:02.218Z,27.11
2023-05-22T12:16:43.461Z,27.04
2023-05-22T12:19:12.288Z,26.98
2023-05-22T12:21:46.477Z,27.03
2023-05-22T12:24:23.355Z,27.39
2023-05-22T12:26:54.108Z,27.43
2023-05-22T12:29:30.398Z,27.36
2023-05-22T12:32:17.800Z,27.44
2023-05-22T12:34:55.402Z,27.52
2023-05-22T12:37:28.648Z,27.66
2023-05-22T12:40:03.609Z,27.69
2023-05-22T12:42:30.591Z,27.74
2023-05-22T12:45:07.688Z,27.87
2023-05-22T12:47:35.195Z,28.03
2023-05-22T12:50:08.543Z,28.09
2023-05-22T12:52:42.589Z,28.19
2023-05-22T12:55:11.432Z,28.18
2023-05-22T12:57:44.464Z,28.29
2023-05-22T13:00:18.537Z,28.30
2023-05-22T13:02:46.484Z,28.31
2023-05-22T13:05:20.713Z,28.29
2023-05-22T13:07:48.042Z,28.37
2023-05-22T13:10:21.936Z,28.45
2023-05-22T13:12:58.523Z,28.57
2023-05-22T13:15:32.727Z,28.64
2023-05-22T13:17:59.913Z,28.80
2023-05-22T13:20:33.564Z,28.92
2023-05-22T13:23:00.521Z,28.69
2023-05-22T13:25:34.452Z,28.55
2023-05-22T13:28:01.766Z,28.67
2023-05-22T13:30:35.490Z,28.93
2023-05-22T13:33:09.651Z,28.78
2023-05-22T13:35:37.051Z,28.82
2023-05-22T13:38:10.457Z,29.13
2023-05-22T13:40:37.524Z,29.48
2023-05-22T13:43:11.531Z,29.62
2023-05-22T13:45:38.592Z,29.57
2023-05-22T13:48:13.196Z,29.09
2023-05-22T13:50:41.437Z,28.58
2023-05-22T13:53:14.603Z,27.90
2023-05-22T13:55:42.066Z,27.60
2023-05-22T13:58:09.266Z,27.47
2023-05-22T14:00:42.666Z,27.52
2023-05-22T14:03:11.771Z,27.80
2023-05-22T14:05:45.490Z,28.07
2023-05-22T14:08:12.917Z,28.29
2023-05-22T14:10:46.964Z,28.15
2023-05-22T14:13:13.945Z,28.11
2023-05-22T14:15:49.505Z,27.52
2023-05-22T14:18:19.253Z,27.21
2023-05-22T14:20:53.678Z,26.85
2023-05-22T14:23:20.776Z,26.73
2023-05-22T14:25:47.858Z,26.90
2023-05-22T14:28:21.641Z,27.03
2023-05-22T14:30:54.874Z,26.99
2023-05-22T14:33:28.800Z,26.73
2023-05-22T14:36:02.424Z,26.48
2023-05-22T14:38:40.652Z,26.36
2023-05-22T14:41:07.653Z,26.33
2023-05-22T14:43:43.721Z,26.26
2023-05-22T14:46:11.655Z,26.17
2023-05-22T14:48:45.589Z,26.03
2023-05-22T14:51:19.529Z,25.85
2023-05-22T14:53:53.850Z,25.68
2023-05-22T14:56:22.159Z,25.46
2023-05-22T14:58:55.660Z,25.22
2023-05-22T15:01:29.576Z,24.92
2023-05-22T15:03:56.825Z,24.72
2023-05-22T15:06:30.620Z,24.51
2023-05-22T15:08:57.660Z,24.26
2023-05-22T15:11:31.764Z,24.12
2023-05-22T15:13:58.919Z,24.00
2023-05-22T15:16:32.678Z,23.86
2023-05-22T15:19:06.702Z,23.64
2023-05-22T15:21:40.797Z,23.61
2023-05-22T15:24:15.208Z,23.46
2023-05-22T15:26:48.548Z,23.31
2023-05-22T15:29:15.688Z,23.27
2023-05-22T15:31:55.580Z,23.11
2023-05-22T15:34:29.676Z,22.99
2023-05-22T15:36:56.843Z,22.90
2023-05-22T15:39:30.708Z,22.82
2023-05-22T15:42:05.940Z,22.73
2023-05-22T15:44:40.887Z,22.69
2023-05-22T15:47:07.978Z,22.64
2023-05-22T15:49:43.070Z,22.57
2023-05-22T15:52:10.107Z,22.52
2023-05-22T15:54:43.719Z,22.48
2023-05-22T15:57:17.778Z,22.38
2023-05-22T15:59:53.584Z,22.32
2023-05-22T16:02:26.900Z,22.25
2023-05-22T16:04:53.974Z,22.17
2023-05-22T16:07:27.726Z,22.14
2023-05-22T16:10:01.972Z,22.23
2023-05-22T16:12:29.031Z,22.17
2023-05-22T16:15:04.453Z,22.15
2023-05-22T16:17:47.812Z,22.30
2023-05-22T16:20:22.730Z,22.38
2023-05-22T16:22:49.853Z,22.41
2023-05-22T16:25:26.978Z,22.52
2023-05-22T16:28:00.722Z,22.57
2023-05-22T16:30:34.715Z,22.58
2023-05-22T16:33:09.148Z,22.56
2023-05-22T16:35:42.737Z,22.60
2023-05-22T16:38:12.463Z,22.78
2023-05-22T16:40:45.680Z,22.92
2023-05-22T16:43:20.802Z,22.94
2023-05-22T16:45:54.192Z,23.04
2023-05-22T16:48:27.833Z,23.05
2023-05-22T16:50:54.734Z,23.01
2023-05-22T16:53:28.891Z,23.08
2023-05-22T16:55:56.022Z,23.00
2023-05-22T16:58:29.654Z,23.07
2023-05-22T17:00:57.212Z,23.05
2023-05-22T17:03:31.934Z,23.10
2023-05-22T17:06:05.707Z,23.28
2023-05-22T17:08:32.768Z,23.38
2023-05-22T17:11:06.670Z,23.43
2023-05-22T17:13:33.724Z,23.42
2023-05-22T17:16:10.728Z,23.39
2023-05-22T17:18:38.305Z,23.32
2023-05-22T17:21:11.736Z,23.26
2023-05-22T17:23:39.175Z,23.05
2023-05-22T17:26:12.775Z,22.85
2023-05-22T17:28:39.786Z,22.71
2023-05-22T17:31:26.728Z,22.52
2023-05-22T17:33:53.745Z,22.28
2023-05-22T17:36:27.714Z,22.21
2023-05-22T17:38:54.680Z,22.05
2023-05-22T17:41:29.744Z,21.96
2023-05-22T17:43:57.487Z,21.86
2023-05-22T17:46:30.758Z,21.76
2023-05-22T17:48:58.102Z,21.61
2023-05-22T17:51:25.052Z,21.59
2023-05-22T17:54:02.802Z,21.43
2023-05-22T17:56:29.855Z,21.45
2023-05-22T17:59:03.753Z,21.40
2023-05-22T18:01:38.792Z,21.36
2023-05-22T18:04:06.538Z,21.33
2023-05-22T18:06:41.015Z,21.18
2023-05-22T18:09:08.408Z,21.08
2023-05-22T18:11:41.940Z,20.99
2023-05-22T18:14:15.668Z,20.87
2023-05-22T18:16:55.654Z,20.73
2023-05-22T18:19:29.116Z,20.65
2023-05-22T18:22:02.782Z,20.54
2023-05-22T18:24:29.708Z,20.39
2023-05-22T18:27:03.826Z,20.30
2023-05-22T18:29:30.973Z,20.18
2023-05-22T18:32:05.371Z,20.03
2023-05-22T18:34:39.035Z,19.92
2023-05-22T18:37:12.721Z,19.87
2023-05-22T18:39:39.586Z,19.77
2023-05-22T18:42:13.815Z,19.69
2023-05-22T18:44:41.505Z,19.61
2023-05-22T18:47:14.837Z,19.52
2023-05-22T18:49:42.118Z,19.42
2023-05-22T18:52:15.732Z,19.34
2023-05-22T18:54:42.796Z,19.26
2023-05-22T18:57:12.870Z,19.14
2023-05-22T18:59:47.713Z,19.08
2023-05-22T19:02:22.403Z,18.93
2023-05-22T19:04:58.378Z,18.82
2023-05-22T19:07:40.116Z,18.79
2023-05-22T19:10:08.442Z,18.67
2023-05-22T19:12:35.456Z,18.58
2023-05-22T19:15:09.886Z,18.51
2023-05-22T19:17:37.137Z,18.40
2023-05-22T19:20:15.103Z,18.37
2023-05-22T19:22:42.250Z,18.19
2023-05-22T19:25:15.882Z,18.20
2023-05-22T19:27:42.934Z,18.11
2023-05-22T19:30:16.762Z,18.03
2023-05-22T19:32:56.096Z,17.90
2023-05-22T19:35:35.885Z,17.84
2023-05-22T19:38:03.166Z,17.74
2023-05-22T19:40:36.778Z,17.69
2023-05-22T19:43:04.165Z,17.62
2023-05-22T19:45:37.811Z,17.52
2023-05-22T19:48:04.868Z,17.46
2023-05-22T19:50:32.820Z,17.40
2023-05-22T19:53:06.963Z,17.27
2023-05-22T19:55:33.980Z,17.27
2023-05-22T19:58:07.706Z,17.18
2023-05-22T20:00:36.044Z,17.11
2023-05-22T20:03:09.866Z,17.07
2023-05-22T20:05:43.266Z,16.99
2023-05-22T20:08:17.796Z,16.89
2023-05-22T20:10:44.947Z,16.85
2023-05-22T20:13:18.855Z,16.81
2023-05-22T20:15:47.919Z,16.75
2023-05-22T20:18:15.122Z,16.72
2023-05-22T20:20:48.787Z,16.64
2023-05-22T20:23:15.952Z,16.49
2023-05-22T20:25:49.847Z,16.58
2023-05-22T20:28:16.894Z,16.54
2023-05-22T20:30:50.859Z,16.51
2023-05-22T20:33:23.988Z,16.47
2023-05-22T20:35:58.870Z,16.44
2023-05-22T20:38:26.274Z,16.39
2023-05-22T20:41:00.925Z,16.32
2023-05-22T20:43:30.443Z,16.34
2023-05-22T20:46:04.781Z,16.28
2023-05-22T20:48:34.445Z,16.25
2023-05-22T20:51:07.810Z,16.19
2023-05-22T20:53:40.823Z,16.12
2023-05-22T20:56:14.735Z,16.12
2023-05-22T20:58:47.708Z,16.09
2023-05-22T21:01:14.660Z,16.03
2023-05-22T21:03:47.752Z,16.02
2023-05-22T21:06:14.692Z,16.00
2023-05-22T21:08:47.815Z,15.95
2023-05-22T21:11:14.990Z,15.93
2023-05-22T21:13:48.862Z,15.91
2023-05-22T21:16:15.791Z,15.85
2023-05-22T21:18:49.807Z,15.86
2023-05-22T21:21:26.764Z,15.90
2023-05-22T21:23:59.880Z,15.92
2023-05-22T21:26:27.750Z,15.92
2023-05-22T21:28:54.965Z,15.95
2023-05-22T21:31:28.923Z,15.89
2023-05-22T21:34:02.728Z,15.73
2023-05-22T21:36:35.825Z,15.69
2023-05-22T21:39:03.957Z,15.57
2023-05-22T21:41:40.866Z,15.49
2023-05-22T21:44:16.904Z,15.42
2023-05-22T21:46:49.859Z,15.39
2023-05-22T21:49:22.803Z,15.23
2023-05-22T21:51:55.902Z,15.17
2023-05-22T21:54:22.928Z,15.18
2023-05-22T21:56:56.022Z,15.18
2023-05-22T21:59:23.147Z,15.07
2023-05-22T22:01:50.274Z,14.99
2023-05-22T22:04:26.942Z,15.03
2023-05-22T22:07:04.292Z,14.99
2023-05-22T22:09:37.907Z,14.86
2023-05-22T22:12:05.149Z,14.88
2023-05-22T22:14:38.973Z,14.84
2023-05-22T22:17:06.187Z,14.91
2023-05-22T22:19:43.859Z,14.93
2023-05-22T22:22:15.318Z,14.80
2023-05-22T22:24:48.956Z,14.88
2023-05-22T22:27:15.959Z,14.80
2023-05-22T22:29:53.882Z,14.81
2023-05-22T22:32:27.146Z,14.81
2023-05-22T22:35:07.901Z,14.65
2023-05-22T22:37:35.052Z,14.72
2023-05-22T22:40:10.816Z,14.80
2023-05-22T22:42:40.866Z,14.71
2023-05-22T22:45:17.924Z,14.77
2023-05-22T22:47:46.060Z,14.56
2023-05-22T22:50:20.228Z,14.55
2023-05-22T22:52:49.425Z,14.72
2023-05-22T22:55:23.145Z,14.63
2023-05-22T22:57:50.760Z,14.58
2023-05-22T23:00:27.137Z,14.49
2023-05-22T23:03:00.929Z,14.63
2023-05-22T23:05:28.150Z,14.64
2023-05-22T23:08:08.872Z,14.54
2023-05-22T23:10:36.163Z,14.53
2023-05-22T23:13:13.133Z,14.60
2023-05-22T23:15:43.358Z,14.58
2023-05-22T23:18:18.039Z,14.60
2023-05-22T23:20:45.272Z,14.67
2023-05-22T23:23:18.856Z,14.66
2023-05-22T23:25:46.150Z,14.57
2023-05-22T23:28:21.878Z,14.56
2023-05-22T23:30:49.018Z,14.68
2023-05-22T23:33:28.912Z,14.51
2023-05-22T23:36:03.224Z,14.60
2023-05-22T23:38:36.931Z,14.56
2023-05-22T23:41:10.947Z,14.44
2023-05-22T23:43:38.261Z,14.50
2023-05-22T23:46:15.543Z,14.56
2023-05-22T23:48:43.036Z,14.50
2023-05-22T23:51:21.964Z,14.41
2023-05-22T23:53:48.893Z,14.44
2023-05-22T23:56:37.977Z,14.51
2023-05-22T23:59:08.742Z,14.43
